sensor_id;sensor_type;location;lat;lon;timestamp;P1;durP1;ratioP1;P2;durP2;ratioP2
18251;SDS011;26917;52.328;20.878;2022-11-11T00:05:13;73.18;;;31.38;;
18251;SDS011;26917;52.328;20.878;2022-11-11T00:08:11;66.28;;;32.00;;
18251;SDS011;26917;52.328;20.878;2022-11-11T00:11:44;65.82;;;31.50;;
18251;SDS011;26917;52.328;20.878;2022-11-11T00:14:58;66.60;;;31.40;;
18251;SDS011;26917;52.328;20.878;2022-11-11T00:17:45;82.60;;;32.78;;
18251;SDS011;26917;52.328;20.878;2022-11-11T00:20:54;63.78;;;31.52;;
18251;SDS011;26917;52.328;20.878;2022-11-11T00:24:07;73.97;;;30.77;;
18251;SDS011;26917;52.328;20.878;2022-11-11T00:27:28;69.40;;;31.65;;
18251;SDS011;26917;52.328;20.878;2022-11-11T00:30:21;74.75;;;31.85;;
18251;SDS011;26917;52.328;20.878;2022-11-11T00:33:07;78.07;;;29.33;;
18251;SDS011;26917;52.328;20.878;2022-11-11T00:35:57;67.28;;;31.20;;
18251;SDS011;26917;52.328;20.878;2022-11-11T00:38:44;64.30;;;28.90;;
18251;SDS011;26917;52.328;20.878;2022-11-11T00:41:32;74.35;;;30.77;;
18251;SDS011;26917;52.328;20.878;2022-11-11T00:44:39;75.55;;;29.88;;
18251;SDS011;26917;52.328;20.878;2022-11-11T00:47:26;71.55;;;31.58;;
18251;SDS011;26917;52.328;20.878;2022-11-11T00:50:44;71.07;;;30.77;;
18251;SDS011;26917;52.328;20.878;2022-11-11T00:53:46;61.97;;;29.52;;
18251;SDS011;26917;52.328;20.878;2022-11-11T00:56:36;72.25;;;30.85;;
18251;SDS011;26917;52.328;20.878;2022-11-11T00:59:24;70.28;;;31.25;;
18251;SDS011;26917;52.328;20.878;2022-11-11T01:02:11;66.57;;;31.63;;
18251;SDS011;26917;52.328;20.878;2022-11-11T01:05:06;67.78;;;29.70;;
18251;SDS011;26917;52.328;20.878;2022-11-11T01:07:56;67.95;;;29.20;;
18251;SDS011;26917;52.328;20.878;2022-11-11T01:13:57;62.88;;;29.40;;
18251;SDS011;26917;52.328;20.878;2022-11-11T01:16:48;67.88;;;31.00;;
18251;SDS011;26917;52.328;20.878;2022-11-11T01:19:35;76.18;;;32.58;;
18251;SDS011;26917;52.328;20.878;2022-11-11T01:22:22;65.05;;;30.40;;
18251;SDS011;26917;52.328;20.878;2022-11-11T01:25:09;79.15;;;30.75;;
18251;SDS011;26917;52.328;20.878;2022-11-11T01:27:57;66.43;;;30.80;;
18251;SDS011;26917;52.328;20.878;2022-11-11T01:30:44;65.78;;;30.83;;
18251;SDS011;26917;52.328;20.878;2022-11-11T01:33:31;68.80;;;29.98;;
18251;SDS011;26917;52.328;20.878;2022-11-11T01:36:30;60.95;;;28.65;;
18251;SDS011;26917;52.328;20.878;2022-11-11T01:43:18;81.68;;;30.83;;
18251;SDS011;26917;52.328;20.878;2022-11-11T01:46:09;75.32;;;29.90;;
18251;SDS011;26917;52.328;20.878;2022-11-11T01:49:17;62.35;;;30.33;;
18251;SDS011;26917;52.328;20.878;2022-11-11T01:52:12;60.72;;;29.23;;
18251;SDS011;26917;52.328;20.878;2022-11-11T01:55:04;72.53;;;31.17;;
18251;SDS011;26917;52.328;20.878;2022-11-11T01:58:17;79.22;;;30.08;;
18251;SDS011;26917;52.328;20.878;2022-11-11T02:01:42;71.78;;;29.77;;
18251;SDS011;26917;52.328;20.878;2022-11-11T02:04:30;62.42;;;26.42;;
18251;SDS011;26917;52.328;20.878;2022-11-11T02:07:42;65.95;;;27.65;;
18251;SDS011;26917;52.328;20.878;2022-11-11T02:10:31;62.78;;;28.13;;
18251;SDS011;26917;52.328;20.878;2022-11-11T02:20:12;65.00;;;29.17;;
18251;SDS011;26917;52.328;20.878;2022-11-11T02:23:04;69.45;;;28.73;;
18251;SDS011;26917;52.328;20.878;2022-11-11T02:25:55;61.35;;;27.67;;
18251;SDS011;26917;52.328;20.878;2022-11-11T02:28:43;62.20;;;27.90;;
18251;SDS011;26917;52.328;20.878;2022-11-11T02:31:31;59.03;;;27.48;;
18251;SDS011;26917;52.328;20.878;2022-11-11T02:34:19;62.90;;;28.63;;
18251;SDS011;26917;52.328;20.878;2022-11-11T02:37:07;59.22;;;28.58;;
18251;SDS011;26917;52.328;20.878;2022-11-11T02:39:56;70.50;;;27.50;;
18251;SDS011;26917;52.328;20.878;2022-11-11T02:49:31;59.85;;;28.88;;
18251;SDS011;26917;52.328;20.878;2022-11-11T02:52:18;60.22;;;26.70;;
18251;SDS011;26917;52.328;20.878;2022-11-11T02:55:11;66.25;;;28.83;;
18251;SDS011;26917;52.328;20.878;2022-11-11T02:57:58;53.83;;;24.98;;
18251;SDS011;26917;52.328;20.878;2022-11-11T03:00:46;62.92;;;27.02;;
18251;SDS011;26917;52.328;20.878;2022-11-11T03:03:34;77.85;;;28.10;;
18251;SDS011;26917;52.328;20.878;2022-11-11T03:06:22;52.60;;;26.15;;
18251;SDS011;26917;52.328;20.878;2022-11-11T03:09:09;63.20;;;27.77;;
18251;SDS011;26917;52.328;20.878;2022-11-11T03:11:56;60.78;;;25.67;;
18251;SDS011;26917;52.328;20.878;2022-11-11T03:14:43;48.03;;;24.42;;
18251;SDS011;26917;52.328;20.878;2022-11-11T03:18:04;56.10;;;25.00;;
18251;SDS011;26917;52.328;20.878;2022-11-11T03:20:53;62.45;;;23.75;;
18251;SDS011;26917;52.328;20.878;2022-11-11T03:24:18;53.38;;;25.02;;
18251;SDS011;26917;52.328;20.878;2022-11-11T03:27:05;59.85;;;26.30;;
18251;SDS011;26917;52.328;20.878;2022-11-11T03:29:52;58.58;;;25.60;;
18251;SDS011;26917;52.328;20.878;2022-11-11T03:32:43;65.80;;;26.45;;
18251;SDS011;26917;52.328;20.878;2022-11-11T03:35:41;67.38;;;27.90;;
18251;SDS011;26917;52.328;20.878;2022-11-11T03:38:30;59.25;;;26.20;;
18251;SDS011;26917;52.328;20.878;2022-11-11T03:41:16;69.80;;;27.10;;
18251;SDS011;26917;52.328;20.878;2022-11-11T03:44:30;58.78;;;24.02;;
18251;SDS011;26917;52.328;20.878;2022-11-11T03:48:03;55.75;;;24.35;;
18251;SDS011;26917;52.328;20.878;2022-11-11T03:51:14;56.47;;;25.83;;
18251;SDS011;26917;52.328;20.878;2022-11-11T03:54:46;70.68;;;25.65;;
18251;SDS011;26917;52.328;20.878;2022-11-11T03:57:49;59.72;;;23.77;;
18251;SDS011;26917;52.328;20.878;2022-11-11T04:00:58;64.28;;;24.77;;
18251;SDS011;26917;52.328;20.878;2022-11-11T04:05:08;61.17;;;25.23;;
18251;SDS011;26917;52.328;20.878;2022-11-11T04:15:01;57.60;;;23.65;;
18251;SDS011;26917;52.328;20.878;2022-11-11T04:18:30;56.05;;;24.67;;
18251;SDS011;26917;52.328;20.878;2022-11-11T04:21:55;51.45;;;24.33;;
18251;SDS011;26917;52.328;20.878;2022-11-11T04:24:44;60.13;;;23.85;;
18251;SDS011;26917;52.328;20.878;2022-11-11T04:28:19;67.15;;;26.67;;
18251;SDS011;26917;52.328;20.878;2022-11-11T04:31:43;48.53;;;22.15;;
18251;SDS011;26917;52.328;20.878;2022-11-11T04:35:21;62.03;;;25.35;;
18251;SDS011;26917;52.328;20.878;2022-11-11T04:38:30;44.90;;;21.45;;
18251;SDS011;26917;52.328;20.878;2022-11-11T04:41:49;58.53;;;22.83;;
18251;SDS011;26917;52.328;20.878;2022-11-11T04:48:19;55.78;;;21.70;;
18251;SDS011;26917;52.328;20.878;2022-11-11T04:51:08;49.17;;;20.15;;
18251;SDS011;26917;52.328;20.878;2022-11-11T04:54:05;44.88;;;20.73;;
18251;SDS011;26917;52.328;20.878;2022-11-11T04:56:59;50.92;;;20.42;;
18251;SDS011;26917;52.328;20.878;2022-11-11T04:59:45;53.47;;;20.98;;
18251;SDS011;26917;52.328;20.878;2022-11-11T05:02:54;49.80;;;20.45;;
18251;SDS011;26917;52.328;20.878;2022-11-11T05:06:16;44.35;;;20.05;;
18251;SDS011;26917;52.328;20.878;2022-11-11T05:09:20;39.45;;;19.80;;
18251;SDS011;26917;52.328;20.878;2022-11-11T05:12:15;45.67;;;19.33;;
18251;SDS011;26917;52.328;20.878;2022-11-11T05:15:08;49.05;;;19.63;;
18251;SDS011;26917;52.328;20.878;2022-11-11T05:18:41;36.95;;;19.27;;
18251;SDS011;26917;52.328;20.878;2022-11-11T05:22:05;48.85;;;19.75;;
18251;SDS011;26917;52.328;20.878;2022-11-11T05:24:57;44.33;;;19.15;;
18251;SDS011;26917;52.328;20.878;2022-11-11T05:28:09;41.85;;;18.65;;
18251;SDS011;26917;52.328;20.878;2022-11-11T05:30:59;45.28;;;19.00;;
18251;SDS011;26917;52.328;20.878;2022-11-11T05:33:50;44.20;;;19.30;;
18251;SDS011;26917;52.328;20.878;2022-11-11T05:36:42;50.63;;;19.88;;
18251;SDS011;26917;52.328;20.878;2022-11-11T05:42:52;46.55;;;18.52;;
18251;SDS011;26917;52.328;20.878;2022-11-11T05:45:50;42.63;;;18.83;;
18251;SDS011;26917;52.328;20.878;2022-11-11T05:52:48;36.30;;;18.95;;
18251;SDS011;26917;52.328;20.878;2022-11-11T05:55:35;40.30;;;18.45;;
18251;SDS011;26917;52.328;20.878;2022-11-11T05:58:35;44.00;;;19.77;;
18251;SDS011;26917;52.328;20.878;2022-11-11T06:01:44;48.22;;;18.63;;
18251;SDS011;26917;52.328;20.878;2022-11-11T06:08:12;39.95;;;18.40;;
18251;SDS011;26917;52.328;20.878;2022-11-11T06:11:02;36.35;;;17.30;;
18251;SDS011;26917;52.328;20.878;2022-11-11T06:14:07;42.78;;;19.25;;
18251;SDS011;26917;52.328;20.878;2022-11-11T06:17:09;41.88;;;18.55;;
18251;SDS011;26917;52.328;20.878;2022-11-11T06:19:55;47.42;;;18.50;;
18251;SDS011;26917;52.328;20.878;2022-11-11T06:25:47;43.63;;;18.48;;
18251;SDS011;26917;52.328;20.878;2022-11-11T06:29:48;33.60;;;17.55;;
18251;SDS011;26917;52.328;20.878;2022-11-11T06:32:29;38.05;;;18.05;;
18251;SDS011;26917;52.328;20.878;2022-11-11T06:35:25;49.72;;;18.80;;
18251;SDS011;26917;52.328;20.878;2022-11-11T06:48:08;29.58;;;15.02;;
18251;SDS011;26917;52.328;20.878;2022-11-11T06:51:08;28.58;;;17.00;;
18251;SDS011;26917;52.328;20.878;2022-11-11T06:58:15;41.95;;;17.13;;
18251;SDS011;26917;52.328;20.878;2022-11-11T07:01:39;33.55;;;16.42;;
18251;SDS011;26917;52.328;20.878;2022-11-11T07:07:44;37.05;;;16.65;;
18251;SDS011;26917;52.328;20.878;2022-11-11T07:14:11;38.92;;;16.65;;
18251;SDS011;26917;52.328;20.878;2022-11-11T07:24:27;37.13;;;16.50;;
18251;SDS011;26917;52.328;20.878;2022-11-11T07:27:14;34.05;;;16.08;;
18251;SDS011;26917;52.328;20.878;2022-11-11T07:30:02;32.65;;;15.13;;
18251;SDS011;26917;52.328;20.878;2022-11-11T07:32:53;32.90;;;14.82;;
18251;SDS011;26917;52.328;20.878;2022-11-11T07:36:09;37.42;;;15.75;;
18251;SDS011;26917;52.328;20.878;2022-11-11T07:39:06;35.45;;;16.92;;
18251;SDS011;26917;52.328;20.878;2022-11-11T07:41:53;36.28;;;15.20;;
18251;SDS011;26917;52.328;20.878;2022-11-11T07:45:01;35.97;;;15.63;;
18251;SDS011;26917;52.328;20.878;2022-11-11T07:51:55;36.83;;;17.30;;
18251;SDS011;26917;52.328;20.878;2022-11-11T07:54:51;35.05;;;16.05;;
18251;SDS011;26917;52.328;20.878;2022-11-11T07:57:41;38.60;;;15.45;;
18251;SDS011;26917;52.328;20.878;2022-11-11T08:00:35;35.88;;;16.05;;
18251;SDS011;26917;52.328;20.878;2022-11-11T08:03:40;30.50;;;14.52;;
18251;SDS011;26917;52.328;20.878;2022-11-11T08:06:35;32.45;;;15.20;;
18251;SDS011;26917;52.328;20.878;2022-11-11T08:09:22;25.80;;;15.02;;
18251;SDS011;26917;52.328;20.878;2022-11-11T08:12:12;29.05;;;14.60;;
18251;SDS011;26917;52.328;20.878;2022-11-11T08:15:41;38.45;;;15.43;;
18251;SDS011;26917;52.328;20.878;2022-11-11T08:19:37;36.80;;;14.10;;
18251;SDS011;26917;52.328;20.878;2022-11-11T08:23:11;33.25;;;15.38;;
18251;SDS011;26917;52.328;20.878;2022-11-11T08:27:15;28.63;;;14.15;;
18251;SDS011;26917;52.328;20.878;2022-11-11T08:45:08;29.00;;;14.13;;
18251;SDS011;26917;52.328;20.878;2022-11-11T08:51:28;25.58;;;13.88;;
18251;SDS011;26917;52.328;20.878;2022-11-11T09:15:19;33.83;;;13.18;;
18251;SDS011;26917;52.328;20.878;2022-11-11T09:27:43;23.67;;;12.98;;
18251;SDS011;26917;52.328;20.878;2022-11-11T09:34:38;26.45;;;12.55;;
18251;SDS011;26917;52.328;20.878;2022-11-11T09:45:14;25.95;;;13.43;;
18251;SDS011;26917;52.328;20.878;2022-11-11T10:00:12;22.75;;;10.48;;
18251;SDS011;26917;52.328;20.878;2022-11-11T10:11:57;18.42;;;10.68;;
18251;SDS011;26917;52.328;20.878;2022-11-11T10:19:55;22.10;;;10.43;;
18251;SDS011;26917;52.328;20.878;2022-11-11T10:31:53;22.58;;;11.18;;
18251;SDS011;26917;52.328;20.878;2022-11-11T10:53:22;19.98;;;10.70;;
18251;SDS011;26917;52.328;20.878;2022-11-11T10:57:35;22.02;;;9.82;;
18251;SDS011;26917;52.328;20.878;2022-11-11T11:08:43;17.45;;;9.13;;
18251;SDS011;26917;52.328;20.878;2022-11-11T11:12:04;20.67;;;10.65;;
18251;SDS011;26917;52.328;20.878;2022-11-11T11:22:06;16.85;;;8.45;;
18251;SDS011;26917;52.328;20.878;2022-11-11T11:25:19;15.45;;;7.97;;
18251;SDS011;26917;52.328;20.878;2022-11-11T11:29:16;15.20;;;8.88;;
18251;SDS011;26917;52.328;20.878;2022-11-11T11:32:14;17.80;;;8.45;;
18251;SDS011;26917;52.328;20.878;2022-11-11T11:35:34;19.63;;;8.20;;
18251;SDS011;26917;52.328;20.878;2022-11-11T11:50:07;17.50;;;8.13;;
18251;SDS011;26917;52.328;20.878;2022-11-11T12:02:30;15.15;;;7.57;;
18251;SDS011;26917;52.328;20.878;2022-11-11T12:09:33;18.23;;;9.80;;
18251;SDS011;26917;52.328;20.878;2022-11-11T12:21:16;15.85;;;6.55;;
18251;SDS011;26917;52.328;20.878;2022-11-11T12:25:17;18.33;;;6.97;;
18251;SDS011;26917;52.328;20.878;2022-11-11T12:28:29;20.05;;;7.07;;
18251;SDS011;26917;52.328;20.878;2022-11-11T12:36:10;15.98;;;7.82;;
18251;SDS011;26917;52.328;20.878;2022-11-11T12:43:14;14.50;;;7.00;;
18251;SDS011;26917;52.328;20.878;2022-11-11T12:46:21;17.77;;;6.25;;
18251;SDS011;26917;52.328;20.878;2022-11-11T13:06:55;11.45;;;6.95;;
18251;SDS011;26917;52.328;20.878;2022-11-11T13:17:41;13.43;;;7.03;;
18251;SDS011;26917;52.328;20.878;2022-11-11T13:29:17;15.18;;;7.88;;
18251;SDS011;26917;52.328;20.878;2022-11-11T13:41:09;18.20;;;8.23;;
18251;SDS011;26917;52.328;20.878;2022-11-11T13:44:04;17.30;;;7.65;;
18251;SDS011;26917;52.328;20.878;2022-11-11T13:47:46;14.57;;;7.35;;
18251;SDS011;26917;52.328;20.878;2022-11-11T13:51:23;15.88;;;6.97;;
18251;SDS011;26917;52.328;20.878;2022-11-11T13:58:22;14.57;;;9.02;;
18251;SDS011;26917;52.328;20.878;2022-11-11T14:01:46;16.55;;;8.02;;
18251;SDS011;26917;52.328;20.878;2022-11-11T14:05:43;18.85;;;8.20;;
18251;SDS011;26917;52.328;20.878;2022-11-11T14:13:36;18.15;;;9.35;;
18251;SDS011;26917;52.328;20.878;2022-11-11T14:26:40;17.23;;;9.23;;
18251;SDS011;26917;52.328;20.878;2022-11-11T14:29:46;17.95;;;9.90;;
18251;SDS011;26917;52.328;20.878;2022-11-11T14:32:46;13.57;;;9.05;;
18251;SDS011;26917;52.328;20.878;2022-11-11T14:36:00;19.52;;;9.98;;
18251;SDS011;26917;52.328;20.878;2022-11-11T14:39:14;16.75;;;9.48;;
18251;SDS011;26917;52.328;20.878;2022-11-11T14:42:45;18.63;;;9.50;;
18251;SDS011;26917;52.328;20.878;2022-11-11T14:53:40;21.30;;;10.18;;
18251;SDS011;26917;52.328;20.878;2022-11-11T14:57:03;20.23;;;10.25;;
18251;SDS011;26917;52.328;20.878;2022-11-11T15:00:21;20.85;;;10.25;;
18251;SDS011;26917;52.328;20.878;2022-11-11T15:03:14;20.27;;;9.05;;
18251;SDS011;26917;52.328;20.878;2022-11-11T15:06:55;20.75;;;9.35;;
18251;SDS011;26917;52.328;20.878;2022-11-11T15:17:13;16.13;;;9.10;;
18251;SDS011;26917;52.328;20.878;2022-11-11T15:24:01;15.73;;;9.25;;
18251;SDS011;26917;52.328;20.878;2022-11-11T15:27:18;20.52;;;10.23;;
18251;SDS011;26917;52.328;20.878;2022-11-11T15:31:14;15.07;;;9.02;;
18251;SDS011;26917;52.328;20.878;2022-11-11T15:34:52;18.83;;;9.30;;
18251;SDS011;26917;52.328;20.878;2022-11-11T15:38:03;19.02;;;9.55;;
18251;SDS011;26917;52.328;20.878;2022-11-11T15:41:31;14.55;;;9.13;;
18251;SDS011;26917;52.328;20.878;2022-11-11T15:49:12;17.52;;;8.95;;
18251;SDS011;26917;52.328;20.878;2022-11-11T15:53:09;18.65;;;10.00;;
18251;SDS011;26917;52.328;20.878;2022-11-11T15:56:05;14.98;;;9.15;;
18251;SDS011;26917;52.328;20.878;2022-11-11T16:03:41;17.10;;;9.35;;
18251;SDS011;26917;52.328;20.878;2022-11-11T16:07:46;17.35;;;9.18;;
18251;SDS011;26917;52.328;20.878;2022-11-11T16:11:16;19.05;;;9.27;;
18251;SDS011;26917;52.328;20.878;2022-11-11T16:14:19;11.88;;;7.70;;
18251;SDS011;26917;52.328;20.878;2022-11-11T16:20:47;19.15;;;9.43;;
18251;SDS011;26917;52.328;20.878;2022-11-11T16:23:47;22.20;;;9.77;;
18251;SDS011;26917;52.328;20.878;2022-11-11T16:26:38;19.35;;;9.45;;
18251;SDS011;26917;52.328;20.878;2022-11-11T16:29:34;19.88;;;8.40;;
18251;SDS011;26917;52.328;20.878;2022-11-11T16:32:33;13.00;;;8.52;;
18251;SDS011;26917;52.328;20.878;2022-11-11T16:35:24;18.85;;;9.50;;
18251;SDS011;26917;52.328;20.878;2022-11-11T16:38:28;20.20;;;9.68;;
18251;SDS011;26917;52.328;20.878;2022-11-11T16:41:27;18.25;;;9.15;;
18251;SDS011;26917;52.328;20.878;2022-11-11T16:44:28;22.95;;;10.18;;
18251;SDS011;26917;52.328;20.878;2022-11-11T16:50:51;20.27;;;8.95;;
18251;SDS011;26917;52.328;20.878;2022-11-11T16:57:31;27.77;;;9.90;;
18251;SDS011;26917;52.328;20.878;2022-11-11T17:00:31;24.27;;;10.90;;
18251;SDS011;26917;52.328;20.878;2022-11-11T17:03:48;20.33;;;9.10;;
18251;SDS011;26917;52.328;20.878;2022-11-11T17:06:46;17.80;;;8.43;;
18251;SDS011;26917;52.328;20.878;2022-11-11T17:09:43;16.70;;;9.35;;
18251;SDS011;26917;52.328;20.878;2022-11-11T17:12:36;19.45;;;8.80;;
18251;SDS011;26917;52.328;20.878;2022-11-11T17:16:06;22.13;;;9.30;;
18251;SDS011;26917;52.328;20.878;2022-11-11T17:19:07;20.55;;;8.95;;
18251;SDS011;26917;52.328;20.878;2022-11-11T17:22:22;28.00;;;9.90;;
18251;SDS011;26917;52.328;20.878;2022-11-11T17:26:07;22.95;;;9.77;;
18251;SDS011;26917;52.328;20.878;2022-11-11T17:28:57;20.60;;;9.20;;
18251;SDS011;26917;52.328;20.878;2022-11-11T17:34:09;20.33;;;9.85;;
18251;SDS011;26917;52.328;20.878;2022-11-11T17:40:21;23.40;;;9.55;;
18251;SDS011;26917;52.328;20.878;2022-11-11T17:43:20;18.20;;;9.82;;
18251;SDS011;26917;52.328;20.878;2022-11-11T17:53:52;20.02;;;9.38;;
18251;SDS011;26917;52.328;20.878;2022-11-11T18:01:51;19.65;;;10.60;;
18251;SDS011;26917;52.328;20.878;2022-11-11T18:13:54;18.52;;;9.75;;
18251;SDS011;26917;52.328;20.878;2022-11-11T18:17:07;19.67;;;10.98;;
18251;SDS011;26917;52.328;20.878;2022-11-11T18:21:13;24.83;;;11.38;;
18251;SDS011;26917;52.328;20.878;2022-11-11T18:28:20;17.63;;;9.88;;
18251;SDS011;26917;52.328;20.878;2022-11-11T18:35:09;21.08;;;11.23;;
18251;SDS011;26917;52.328;20.878;2022-11-11T18:38:13;20.98;;;12.00;;
18251;SDS011;26917;52.328;20.878;2022-11-11T18:44:50;18.65;;;10.60;;
18251;SDS011;26917;52.328;20.878;2022-11-11T18:49:03;20.55;;;11.13;;
18251;SDS011;26917;52.328;20.878;2022-11-11T19:10:22;24.65;;;11.85;;
18251;SDS011;26917;52.328;20.878;2022-11-11T19:17:03;29.77;;;12.25;;
18251;SDS011;26917;52.328;20.878;2022-11-11T19:23:05;20.40;;;12.38;;
18251;SDS011;26917;52.328;20.878;2022-11-11T19:31:16;25.42;;;11.35;;
18251;SDS011;26917;52.328;20.878;2022-11-11T19:34:08;24.73;;;11.43;;
18251;SDS011;26917;52.328;20.878;2022-11-11T19:37:12;27.05;;;12.60;;
18251;SDS011;26917;52.328;20.878;2022-11-11T19:40:08;23.40;;;12.25;;
18251;SDS011;26917;52.328;20.878;2022-11-11T19:42:57;24.40;;;12.55;;
18251;SDS011;26917;52.328;20.878;2022-11-11T19:45:46;24.35;;;12.90;;
18251;SDS011;26917;52.328;20.878;2022-11-11T19:52:03;31.83;;;12.73;;
18251;SDS011;26917;52.328;20.878;2022-11-11T19:54:52;32.03;;;13.55;;
18251;SDS011;26917;52.328;20.878;2022-11-11T19:58:08;26.05;;;13.57;;
18251;SDS011;26917;52.328;20.878;2022-11-11T20:16:53;33.47;;;13.25;;
18251;SDS011;26917;52.328;20.878;2022-11-11T20:20:02;25.17;;;14.07;;
18251;SDS011;26917;52.328;20.878;2022-11-11T20:23:15;22.30;;;13.38;;
18251;SDS011;26917;52.328;20.878;2022-11-11T20:26:08;31.13;;;14.13;;
18251;SDS011;26917;52.328;20.878;2022-11-11T20:35:37;23.33;;;12.55;;
18251;SDS011;26917;52.328;20.878;2022-11-11T20:39:34;26.02;;;12.60;;
18251;SDS011;26917;52.328;20.878;2022-11-11T21:03:00;30.23;;;14.10;;
18251;SDS011;26917;52.328;20.878;2022-11-11T21:06:02;28.73;;;13.88;;
18251;SDS011;26917;52.328;20.878;2022-11-11T21:17:20;20.20;;;12.32;;
18251;SDS011;26917;52.328;20.878;2022-11-11T21:21:38;19.85;;;12.40;;
18251;SDS011;26917;52.328;20.878;2022-11-11T21:33:11;21.08;;;12.38;;
18251;SDS011;26917;52.328;20.878;2022-11-11T21:40:34;30.50;;;12.20;;
18251;SDS011;26917;52.328;20.878;2022-11-11T21:43:44;24.17;;;13.13;;
18251;SDS011;26917;52.328;20.878;2022-11-11T21:46:57;27.60;;;12.88;;
18251;SDS011;26917;52.328;20.878;2022-11-11T23:10:08;23.75;;;11.95;;
18251;SDS011;26917;52.328;20.878;2022-11-11T23:30:18;18.63;;;10.55;;
18251;SDS011;26917;52.328;20.878;2022-11-11T23:37:36;22.50;;;10.93;;
